createdAt,value
2019-02-25T00:00:20.248Z,30.93
2019-02-25T00:02:48.519Z,28.13
2019-02-25T00:05:16.801Z,33.50
2019-02-25T00:07:45.078Z,32.03
2019-02-25T00:10:13.471Z,31.63
2019-02-25T00:12:41.711Z,30.97
2019-02-25T00:15:11.609Z,31.57
2019-02-25T00:17:40.599Z,33.10
2019-02-25T00:20:12.606Z,31.37
2019-02-25T00:22:40.996Z,31.37
2019-02-25T00:25:10.883Z,36.10
2019-02-25T00:27:39.173Z,33.70
2019-02-25T00:30:12.275Z,34.77
2019-02-25T00:32:40.615Z,35.67
2019-02-25T00:35:08.899Z,31.07
2019-02-25T00:37:37.219Z,31.43
2019-02-25T00:40:07.588Z,30.93
2019-02-25T00:42:35.849Z,28.40
2019-02-25T00:45:08.811Z,32.00
2019-02-25T00:47:37.162Z,31.17
2019-02-25T00:50:11.799Z,27.33
2019-02-25T00:52:40.086Z,29.90
2019-02-25T00:55:09.183Z,27.23
2019-02-25T00:57:39.095Z,28.00
2019-02-25T01:00:10.583Z,31.13
2019-02-25T01:02:38.848Z,28.20
2019-02-25T01:05:07.686Z,30.67
2019-02-25T01:07:35.975Z,28.33
2019-02-25T01:10:07.218Z,29.07
2019-02-25T01:12:35.492Z,27.67
2019-02-25T01:15:04.565Z,26.37
2019-02-25T01:17:32.826Z,28.60
2019-02-25T01:20:01.161Z,30.97
2019-02-25T01:22:29.446Z,30.83
2019-02-25T01:24:57.894Z,33.43
2019-02-25T01:27:26.170Z,30.63
2019-02-25T01:29:54.486Z,32.57
2019-02-25T01:32:22.831Z,34.30
2019-02-25T01:34:51.118Z,26.50
2019-02-25T01:37:19.409Z,30.27
2019-02-25T01:39:47.886Z,27.43
2019-02-25T01:42:16.233Z,24.93
2019-02-25T01:44:44.603Z,29.87
2019-02-25T01:47:12.896Z,30.17
2019-02-25T01:49:41.216Z,30.07
2019-02-25T01:52:09.551Z,25.90
2019-02-25T01:54:37.927Z,27.87
2019-02-25T01:57:06.246Z,26.33
2019-02-25T01:59:34.619Z,25.47
2019-02-25T02:02:02.934Z,27.20
2019-02-25T02:04:31.259Z,26.43
2019-02-25T02:06:59.569Z,24.50
2019-02-25T02:09:27.984Z,27.67
2019-02-25T02:11:56.259Z,25.07
2019-02-25T02:14:24.564Z,28.03
2019-02-25T02:16:52.831Z,23.63
2019-02-25T02:19:21.282Z,26.23
2019-02-25T02:21:49.563Z,26.83
2019-02-25T02:24:17.859Z,24.30
2019-02-25T02:26:46.115Z,26.40
2019-02-25T02:29:14.471Z,21.47
2019-02-25T02:31:42.783Z,26.23
2019-02-25T02:34:11.084Z,25.60
2019-02-25T02:36:39.367Z,22.50
2019-02-25T02:39:07.723Z,23.60
2019-02-25T02:42:12.904Z,25.53
2019-02-25T02:44:42.410Z,24.07
2019-02-25T02:47:28.745Z,25.83
2019-02-25T02:49:59.591Z,27.43
2019-02-25T02:52:28.059Z,24.23
2019-02-25T02:55:06.165Z,23.10
2019-02-25T02:57:34.455Z,26.60
2019-02-25T03:00:02.783Z,26.47
2019-02-25T03:02:31.084Z,26.20
2019-02-25T03:04:59.338Z,31.33
2019-02-25T03:07:27.675Z,24.00
2019-02-25T03:09:56.114Z,23.87
2019-02-25T03:12:24.372Z,23.27
2019-02-25T03:14:52.696Z,25.40
2019-02-25T03:17:20.938Z,26.70
2019-02-25T03:19:49.259Z,24.67
2019-02-25T03:22:17.572Z,24.67
2019-02-25T03:24:45.934Z,21.83
2019-02-25T03:27:14.229Z,25.03
2019-02-25T03:29:42.526Z,31.80
2019-02-25T03:32:10.845Z,28.63
2019-02-25T03:34:39.140Z,25.67
2019-02-25T03:37:07.450Z,23.80
2019-02-25T03:39:35.722Z,24.97
2019-02-25T03:42:04.047Z,29.30
2019-02-25T03:44:32.373Z,23.53
2019-02-25T03:47:00.653Z,24.63
2019-02-25T03:49:28.964Z,23.63
2019-02-25T03:51:57.253Z,22.67
2019-02-25T03:54:25.525Z,22.73
2019-02-25T03:56:53.883Z,24.27
2019-02-25T03:59:22.205Z,21.77
2019-02-25T04:01:50.528Z,21.47
2019-02-25T04:04:18.847Z,24.20
2019-02-25T04:06:47.127Z,22.87
2019-02-25T04:09:15.478Z,21.60
2019-02-25T04:11:43.872Z,26.47
2019-02-25T04:14:12.189Z,21.37
2019-02-25T04:16:40.478Z,24.20
2019-02-25T04:19:08.774Z,22.20
2019-02-25T04:21:37.043Z,22.47
2019-02-25T04:24:05.328Z,21.17
2019-02-25T04:26:33.669Z,22.83
2019-02-25T04:29:01.958Z,22.50
2019-02-25T04:31:30.321Z,23.33
2019-02-25T04:33:58.689Z,22.53
2019-02-25T04:36:27.001Z,27.40
2019-02-25T04:39:05.152Z,32.03
2019-02-25T04:41:33.446Z,24.93
2019-02-25T04:44:01.726Z,32.83
2019-02-25T04:46:29.999Z,31.53
2019-02-25T04:48:58.291Z,36.00
2019-02-25T04:51:26.637Z,27.07
2019-02-25T04:53:54.892Z,28.27
2019-02-25T04:56:25.309Z,25.43
2019-02-25T04:58:53.174Z,26.60
2019-02-25T05:01:21.433Z,34.93
2019-02-25T05:03:49.736Z,29.93
2019-02-25T05:06:17.986Z,27.37
2019-02-25T05:08:46.247Z,30.53
2019-02-25T05:11:14.515Z,26.00
2019-02-25T05:13:42.866Z,28.27
2019-02-25T05:16:11.132Z,25.70
2019-02-25T05:18:39.403Z,26.27
2019-02-25T05:21:07.686Z,23.23
2019-02-25T05:23:35.964Z,26.57
2019-02-25T05:26:04.247Z,25.27
2019-02-25T05:28:32.522Z,26.00
2019-02-25T05:31:00.792Z,28.27
2019-02-25T05:33:29.040Z,25.67
2019-02-25T05:35:57.327Z,24.20
2019-02-25T05:38:25.596Z,29.30
2019-02-25T05:40:53.864Z,22.63
2019-02-25T05:43:22.202Z,22.00
2019-02-25T05:45:50.474Z,22.70
2019-02-25T05:48:18.786Z,30.70
2019-02-25T05:50:47.080Z,27.10
2019-02-25T05:53:15.382Z,24.33
2019-02-25T05:55:43.663Z,29.30
2019-02-25T05:58:12.007Z,28.37
2019-02-25T06:00:40.283Z,30.27
2019-02-25T06:03:08.625Z,30.07
2019-02-25T06:05:36.905Z,28.60
2019-02-25T06:08:05.201Z,24.17
2019-02-25T06:10:33.464Z,26.33
2019-02-25T06:13:01.736Z,26.23
2019-02-25T06:15:30.078Z,25.10
2019-02-25T06:17:58.387Z,30.80
2019-02-25T06:20:26.662Z,26.23
2019-02-25T06:22:54.947Z,34.10
2019-02-25T06:25:23.233Z,31.07
2019-02-25T06:27:51.522Z,30.40
2019-02-25T06:30:21.981Z,30.07
2019-02-25T06:32:50.248Z,31.73
2019-02-25T06:35:18.620Z,34.50
2019-02-25T06:37:46.893Z,31.40
2019-02-25T06:40:20.059Z,26.70
2019-02-25T06:42:48.377Z,31.97
2019-02-25T06:45:22.549Z,36.53
2019-02-25T06:47:50.811Z,41.70
2019-02-25T06:50:19.102Z,39.70
2019-02-25T06:52:47.378Z,41.47
2019-02-25T06:55:16.799Z,32.93
2019-02-25T06:57:45.157Z,33.00
2019-02-25T07:00:17.903Z,33.53
2019-02-25T07:02:46.202Z,33.00
2019-02-25T07:05:27.854Z,31.90
2019-02-25T07:08:14.339Z,31.37
2019-02-25T07:11:00.443Z,34.43
2019-02-25T07:13:36.372Z,32.37
2019-02-25T07:16:21.607Z,31.23
2019-02-25T07:19:07.954Z,31.83
2019-02-25T07:21:53.132Z,29.20
2019-02-25T07:24:28.977Z,30.23
2019-02-25T07:27:01.754Z,29.70
2019-02-25T07:29:37.554Z,33.10
2019-02-25T07:32:13.047Z,28.27
2019-02-25T07:35:00.735Z,27.13
2019-02-25T07:37:45.257Z,30.83
2019-02-25T07:40:15.289Z,32.70
2019-02-25T07:43:03.570Z,30.30
2019-02-25T07:45:42.320Z,30.03
2019-02-25T07:48:18.292Z,26.60
2019-02-25T07:50:53.972Z,26.67
2019-02-25T07:53:23.918Z,30.80
2019-02-25T07:56:02.270Z,24.90
2019-02-25T07:58:31.216Z,25.27
2019-02-25T08:01:06.970Z,27.20
2019-02-25T08:03:36.965Z,26.87
2019-02-25T08:06:18.687Z,22.27
2019-02-25T08:08:51.163Z,28.87
2019-02-25T08:11:39.127Z,25.80
2019-02-25T08:14:09.045Z,29.47
2019-02-25T08:16:46.587Z,24.10
2019-02-25T08:19:16.519Z,19.40
2019-02-25T08:21:55.285Z,25.53
2019-02-25T08:24:30.530Z,22.17
2019-02-25T08:26:56.834Z,24.10
2019-02-25T08:29:29.712Z,22.77
2019-02-25T08:31:59.654Z,25.67
2019-02-25T08:34:35.081Z,22.93
2019-02-25T08:37:26.235Z,21.33
2019-02-25T08:40:30.861Z,19.60
2019-02-25T08:43:11.816Z,24.13
2019-02-25T08:45:57.564Z,22.13
2019-02-25T08:48:36.548Z,25.13
2019-02-25T08:51:04.910Z,22.20
2019-02-25T08:53:33.160Z,18.73
2019-02-25T08:56:01.437Z,18.10
2019-02-25T08:58:29.695Z,22.17
2019-02-25T09:00:57.953Z,21.67
2019-02-25T09:03:26.208Z,19.50
2019-02-25T09:05:54.495Z,19.40
2019-02-25T09:08:22.766Z,21.43
2019-02-25T09:10:51.018Z,18.33
2019-02-25T09:13:19.275Z,17.33
2019-02-25T09:15:47.579Z,23.70
2019-02-25T09:18:15.793Z,17.37
2019-02-25T09:20:44.053Z,20.63
2019-02-25T09:23:12.310Z,17.00
2019-02-25T09:25:40.594Z,19.73
2019-02-25T09:28:08.849Z,22.07
2019-02-25T09:30:37.104Z,20.47
2019-02-25T09:33:05.408Z,15.13
2019-02-25T09:35:33.624Z,22.03
2019-02-25T09:38:01.956Z,16.90
2019-02-25T09:40:30.216Z,21.20
2019-02-25T09:42:58.476Z,14.63
2019-02-25T09:45:26.755Z,17.93
2019-02-25T09:47:55.015Z,18.43
2019-02-25T09:50:23.697Z,15.93
2019-02-25T09:52:51.977Z,15.50
2019-02-25T09:55:20.243Z,14.40
2019-02-25T09:57:48.581Z,13.40
2019-02-25T10:00:23.146Z,16.03
2019-02-25T10:02:51.400Z,13.13
2019-02-25T10:05:19.667Z,13.70
2019-02-25T10:07:47.918Z,15.33
2019-02-25T10:10:18.450Z,17.73
2019-02-25T10:12:46.709Z,12.93
2019-02-25T10:15:26.121Z,14.47
2019-02-25T10:17:54.402Z,15.57
2019-02-25T10:20:22.662Z,15.60
2019-02-25T10:22:50.922Z,13.40
2019-02-25T10:25:19.218Z,12.27
2019-02-25T10:27:49.422Z,11.67
2019-02-25T10:30:18.123Z,17.80
2019-02-25T10:32:46.372Z,11.90
2019-02-25T10:35:18.031Z,8.83
2019-02-25T10:37:46.295Z,10.00
2019-02-25T10:40:15.380Z,10.63
2019-02-25T10:42:44.897Z,9.77
2019-02-25T10:45:24.869Z,9.40
2019-02-25T10:47:58.296Z,10.73
2019-02-25T10:50:23.136Z,8.50
2019-02-25T10:52:51.388Z,8.23
2019-02-25T10:55:32.109Z,8.63
2019-02-25T10:58:02.020Z,11.73
2019-02-25T11:00:30.367Z,7.00
2019-02-25T11:02:58.620Z,9.73
2019-02-25T11:05:29.942Z,8.60
2019-02-25T11:07:56.947Z,9.57
2019-02-25T11:10:29.279Z,8.80
2019-02-25T11:12:58.177Z,8.23
2019-02-25T11:15:28.301Z,13.57
2019-02-25T11:17:56.577Z,11.63
2019-02-25T11:20:24.831Z,7.00
2019-02-25T11:22:53.090Z,7.57
2019-02-25T11:25:23.135Z,7.83
2019-02-25T11:27:51.346Z,9.60
2019-02-25T11:30:21.548Z,7.80
2019-02-25T11:32:51.185Z,8.63
2019-02-25T11:35:19.572Z,5.87
2019-02-25T11:37:49.575Z,11.23
2019-02-25T11:40:17.973Z,8.03
2019-02-25T11:42:46.243Z,6.90
2019-02-25T11:45:18.346Z,5.63
2019-02-25T11:47:46.616Z,10.57
2019-02-25T11:50:16.125Z,6.47
2019-02-25T11:52:44.377Z,9.97
2019-02-25T11:55:14.403Z,13.70
2019-02-25T11:57:42.711Z,9.17
2019-02-25T12:00:20.168Z,8.23
2019-02-25T12:02:48.464Z,12.87
2019-02-25T12:05:17.857Z,9.67
2019-02-25T12:07:46.101Z,11.73
2019-02-25T12:10:15.511Z,9.33
2019-02-25T12:12:43.757Z,8.17
2019-02-25T12:15:17.038Z,7.50
2019-02-25T12:17:45.304Z,6.57
2019-02-25T12:20:14.351Z,9.17
2019-02-25T12:22:42.613Z,11.07
2019-02-25T12:25:16.062Z,11.87
2019-02-25T12:27:44.320Z,12.43
2019-02-25T12:30:18.202Z,7.53
2019-02-25T12:32:46.458Z,9.80
2019-02-25T12:35:14.719Z,10.70
2019-02-25T12:37:43.000Z,13.57
2019-02-25T12:40:13.216Z,6.73
2019-02-25T12:42:41.500Z,7.97
2019-02-25T12:45:11.577Z,9.27
2019-02-25T12:47:39.822Z,8.87
2019-02-25T12:50:10.622Z,7.80
2019-02-25T12:52:38.884Z,7.57
2019-02-25T12:55:09.881Z,7.17
2019-02-25T12:57:38.166Z,15.07
2019-02-25T13:00:18.276Z,8.00
2019-02-25T13:02:46.538Z,9.37
2019-02-25T13:05:22.457Z,6.90
2019-02-25T13:07:50.703Z,8.27
2019-02-25T13:10:19.196Z,5.67
2019-02-25T13:12:47.458Z,8.20
2019-02-25T13:15:20.027Z,6.03
2019-02-25T13:17:48.321Z,7.00
2019-02-25T13:20:16.590Z,7.63
2019-02-25T13:22:44.928Z,8.53
2019-02-25T13:25:21.774Z,7.93
2019-02-25T13:27:51.829Z,12.13
2019-02-25T13:30:20.067Z,11.73
2019-02-25T13:32:48.328Z,11.27
2019-02-25T13:35:16.576Z,11.37
2019-02-25T13:37:45.067Z,5.90
2019-02-25T13:40:15.631Z,16.33
2019-02-25T13:42:44.117Z,9.17
2019-02-25T13:45:16.689Z,9.60
2019-02-25T13:47:45.005Z,11.03
2019-02-25T13:50:14.725Z,10.90
2019-02-25T13:52:48.552Z,11.87
2019-02-25T13:55:13.639Z,14.03
2019-02-25T13:57:41.916Z,10.20
2019-02-25T14:00:18.602Z,8.07
2019-02-25T14:02:47.015Z,7.97
2019-02-25T14:05:15.480Z,12.07
2019-02-25T14:07:43.829Z,7.33
2019-02-25T14:10:14.192Z,8.53
2019-02-25T14:12:42.505Z,7.07
2019-02-25T14:15:17.183Z,10.23
2019-02-25T14:17:45.531Z,11.07
2019-02-25T14:20:16.754Z,8.33
2019-02-25T14:22:45.090Z,9.93
2019-02-25T14:25:16.183Z,8.40
2019-02-25T14:27:45.480Z,13.20
2019-02-25T14:30:16.920Z,8.93
2019-02-25T14:32:45.211Z,13.47
2019-02-25T14:35:13.579Z,7.63
2019-02-25T14:37:41.926Z,10.27
2019-02-25T14:40:16.702Z,11.37
2019-02-25T14:42:46.885Z,9.97
2019-02-25T14:45:14.725Z,7.23
2019-02-25T14:47:44.557Z,8.03
2019-02-25T14:50:19.637Z,10.73
2019-02-25T14:52:48.100Z,8.83
2019-02-25T14:55:16.358Z,10.20
2019-02-25T14:57:44.823Z,9.43
2019-02-25T15:00:26.808Z,7.87
2019-02-25T15:02:54.819Z,11.87
2019-02-25T15:05:24.219Z,6.00
2019-02-25T15:07:53.366Z,8.80
2019-02-25T15:10:26.624Z,11.87
2019-02-25T15:12:56.497Z,7.70
2019-02-25T15:15:23.160Z,7.77
2019-02-25T15:17:52.753Z,10.13
2019-02-25T15:20:23.341Z,7.77
2019-02-25T15:22:51.987Z,8.57
2019-02-25T15:25:20.787Z,8.50
2019-02-25T15:27:49.219Z,9.73
2019-02-25T15:30:21.107Z,7.87
2019-02-25T15:32:55.761Z,6.87
2019-02-25T15:35:20.548Z,9.43
2019-02-25T15:37:50.384Z,6.47
2019-02-25T15:40:21.012Z,10.63
2019-02-25T15:43:00.883Z,6.70
2019-02-25T15:45:31.076Z,8.23
2019-02-25T15:48:00.887Z,10.00
2019-02-25T15:50:29.184Z,8.80
2019-02-25T15:53:00.761Z,11.23
2019-02-25T15:55:27.714Z,7.33
2019-02-25T15:57:56.046Z,10.67
2019-02-25T16:00:27.278Z,8.30
2019-02-25T16:02:56.144Z,7.43
2019-02-25T16:05:27.427Z,6.70
2019-02-25T16:07:58.009Z,9.30
2019-02-25T16:10:27.288Z,11.33
2019-02-25T16:12:57.658Z,14.37
2019-02-25T16:15:26.000Z,19.17
2019-02-25T16:17:54.297Z,11.93
2019-02-25T16:20:26.072Z,6.20
2019-02-25T16:22:56.333Z,5.97
2019-02-25T16:25:27.139Z,10.57
2019-02-25T16:27:55.534Z,8.60
2019-02-25T16:30:25.809Z,10.70
2019-02-25T16:32:53.813Z,12.43
2019-02-25T16:35:22.077Z,7.57
2019-02-25T16:37:50.728Z,6.70
2019-02-25T16:40:24.453Z,4.87
2019-02-25T16:42:50.759Z,6.83
2019-02-25T16:45:20.233Z,8.37
2019-02-25T16:47:48.524Z,6.93
2019-02-25T16:50:18.541Z,15.67
2019-02-25T16:52:47.838Z,8.30
2019-02-25T16:55:22.713Z,8.53
2019-02-25T16:57:51.762Z,6.37
2019-02-25T17:00:29.367Z,10.53
2019-02-25T17:02:59.252Z,15.80
2019-02-25T17:05:26.041Z,15.97
2019-02-25T17:07:56.083Z,9.90
2019-02-25T17:10:27.096Z,6.23
2019-02-25T17:12:55.627Z,11.03
2019-02-25T17:15:26.329Z,25.07
2019-02-25T17:17:54.071Z,20.30
2019-02-25T17:20:22.923Z,10.10
2019-02-25T17:22:51.358Z,9.67
2019-02-25T17:25:19.880Z,11.23
2019-02-25T17:27:48.139Z,12.67
2019-02-25T17:30:24.059Z,15.43
2019-02-25T17:32:52.537Z,10.63
2019-02-25T17:35:23.568Z,12.43
2019-02-25T17:37:53.414Z,17.70
2019-02-25T17:40:21.532Z,20.63
2019-02-25T17:42:51.721Z,19.83
2019-02-25T17:45:29.352Z,24.30
2019-02-25T17:47:58.336Z,19.43
2019-02-25T17:50:27.041Z,15.47
2019-02-25T17:52:55.299Z,18.07
2019-02-25T17:55:29.371Z,19.50
2019-02-25T17:57:59.197Z,13.90
2019-02-25T18:00:39.302Z,24.60
2019-02-25T18:03:07.206Z,32.50
2019-02-25T18:05:36.373Z,23.37
2019-02-25T18:08:07.631Z,20.47
2019-02-25T18:10:35.788Z,17.40
2019-02-25T18:13:06.741Z,17.90
2019-02-25T18:15:34.119Z,18.50
2019-02-25T18:18:02.384Z,23.73
2019-02-25T18:20:30.642Z,20.43
2019-02-25T18:22:59.175Z,19.00
2019-02-25T18:25:27.461Z,22.13
2019-02-25T18:27:55.789Z,17.13
2019-02-25T18:30:30.264Z,19.57
2019-02-25T18:33:00.989Z,21.57
2019-02-25T18:35:28.956Z,19.47
2019-02-25T18:37:58.625Z,24.70
2019-02-25T18:40:27.894Z,25.27
2019-02-25T18:42:58.011Z,27.83
2019-02-25T18:45:26.146Z,28.83
2019-02-25T18:47:54.423Z,29.37
2019-02-25T18:50:24.047Z,28.87
2019-02-25T18:52:54.633Z,35.10
2019-02-25T18:55:25.439Z,37.03
2019-02-25T18:57:54.859Z,39.63
2019-02-25T19:00:28.422Z,59.20
2019-02-25T19:02:58.302Z,57.97
2019-02-25T19:05:27.664Z,42.57
2019-02-25T19:07:57.667Z,32.60
2019-02-25T19:10:26.873Z,21.13
2019-02-25T19:12:56.371Z,19.90
2019-02-25T19:15:25.175Z,35.20
2019-02-25T19:17:54.404Z,32.80
2019-02-25T19:20:22.781Z,53.60
2019-02-25T19:22:51.038Z,57.53
2019-02-25T19:25:20.798Z,49.30
2019-02-25T19:27:50.055Z,62.60
2019-02-25T19:30:19.829Z,62.53
2019-02-25T19:32:49.563Z,59.87
2019-02-25T19:35:17.866Z,56.13
2019-02-25T19:37:46.783Z,58.73
2019-02-25T19:40:24.418Z,56.07
2019-02-25T19:42:54.202Z,51.90
2019-02-25T19:45:22.663Z,58.67
2019-02-25T19:47:51.000Z,48.77
2019-02-25T19:50:21.081Z,50.63
2019-02-25T19:52:49.355Z,51.73
2019-02-25T19:55:20.245Z,47.57
2019-02-25T19:57:47.604Z,54.47
2019-02-25T20:00:22.377Z,56.13
2019-02-25T20:02:50.468Z,58.53
2019-02-25T20:05:19.761Z,47.63
2019-02-25T20:07:48.889Z,46.73
2019-02-25T20:10:17.315Z,52.23
2019-02-25T20:12:45.617Z,58.57
2019-02-25T20:15:21.245Z,54.63
2019-02-25T20:17:50.654Z,51.73
2019-02-25T20:20:19.404Z,35.87
2019-02-25T20:22:47.658Z,42.50
2019-02-25T20:25:18.820Z,37.93
2019-02-25T20:27:46.665Z,43.33
2019-02-25T20:30:19.633Z,43.70
2019-02-25T20:32:48.769Z,44.03
2019-02-25T20:35:22.242Z,41.87
2019-02-25T20:37:52.888Z,40.60
2019-02-25T20:40:21.820Z,39.53
2019-02-25T20:42:51.201Z,39.90
2019-02-25T20:45:26.199Z,42.40
2019-02-25T20:47:57.185Z,42.73
2019-02-25T20:50:26.138Z,38.43
2019-02-25T20:52:56.003Z,48.53
2019-02-25T20:55:24.994Z,39.87
2019-02-25T20:57:55.258Z,35.37
2019-02-25T21:00:25.115Z,44.90
2019-02-25T21:02:53.407Z,37.30
2019-02-25T21:05:22.795Z,35.03
2019-02-25T21:07:53.366Z,38.33
2019-02-25T21:10:22.734Z,35.13
2019-02-25T21:12:52.984Z,35.37
2019-02-25T21:15:21.844Z,37.90
2019-02-25T21:17:51.965Z,35.27
2019-02-25T21:20:21.494Z,36.67
2019-02-25T21:22:52.468Z,32.07
2019-02-25T21:25:24.417Z,37.27
2019-02-25T21:27:50.516Z,35.87
2019-02-25T21:30:19.907Z,36.43
2019-02-25T21:32:50.150Z,37.53
2019-02-25T21:35:19.460Z,38.77
2019-02-25T21:37:50.020Z,35.70
2019-02-25T21:40:22.721Z,34.73
2019-02-25T21:42:53.884Z,34.10
2019-02-25T21:45:24.494Z,29.60
2019-02-25T21:47:54.204Z,31.30
2019-02-25T21:50:26.261Z,34.13
2019-02-25T21:52:52.733Z,32.07
2019-02-25T21:55:23.173Z,39.60
2019-02-25T21:57:54.362Z,41.40
2019-02-25T22:00:27.011Z,37.83
2019-02-25T22:02:56.389Z,37.97
2019-02-25T22:05:24.877Z,33.90
2019-02-25T22:07:55.376Z,36.97
2019-02-25T22:10:23.240Z,35.80
2019-02-25T22:12:51.519Z,34.00
2019-02-25T22:15:22.124Z,28.97
2019-02-25T22:17:53.039Z,35.47
2019-02-25T22:20:22.539Z,31.70
2019-02-25T22:22:54.550Z,38.33
2019-02-25T22:25:21.408Z,45.57
2019-02-25T22:27:49.684Z,40.83
2019-02-25T22:30:18.189Z,33.80
2019-02-25T22:32:46.628Z,32.57
2019-02-25T22:35:15.258Z,30.53
2019-02-25T22:37:46.737Z,30.60
2019-02-25T22:40:17.242Z,29.03
2019-02-25T22:42:48.015Z,33.73
2019-02-25T22:45:18.860Z,29.30
2019-02-25T22:47:47.565Z,30.27
2019-02-25T22:50:15.832Z,34.43
2019-02-25T22:52:44.101Z,28.57
2019-02-25T22:55:15.318Z,28.53
2019-02-25T22:57:45.382Z,30.23
2019-02-25T23:00:22.783Z,30.00
2019-02-25T23:02:52.849Z,30.73
2019-02-25T23:05:23.261Z,35.63
2019-02-25T23:07:52.309Z,36.13
2019-02-25T23:10:21.869Z,29.03
2019-02-25T23:12:51.405Z,33.80
2019-02-25T23:15:20.453Z,36.40
2019-02-25T23:17:49.712Z,33.27
2019-02-25T23:20:17.993Z,40.17
2019-02-25T23:22:46.258Z,30.50
2019-02-25T23:25:14.595Z,31.03
2019-02-25T23:27:42.929Z,31.50
2019-02-25T23:30:12.827Z,38.43
2019-02-25T23:32:41.125Z,30.63
2019-02-25T23:35:11.858Z,32.47
2019-02-25T23:37:39.456Z,36.23
2019-02-25T23:40:12.012Z,31.73
2019-02-25T23:42:41.866Z,36.33
2019-02-25T23:45:15.526Z,31.93
2019-02-25T23:47:43.995Z,31.07
2019-02-25T23:50:13.947Z,35.20
2019-02-25T23:52:42.208Z,30.70
2019-02-25T23:55:14.354Z,31.43
2019-02-25T23:57:41.623Z,31.70
